Time;durP1;ratioP1;P1;durP2;ratioP2;P2;SDS_P1;SDS_P2;PMS_P1;PMS_P2;Temp;Humidity;BMP_temperature;BMP_pressure;BME280_temperature;BME280_humidity;BME280_pressure;Samples;Min_cycle;Max_cycle;Signal;HPM_P1;HPM_P2
2023/09/04 00:01:23;;;;;;;2.40;2.40;;;;;;;;;;5031610;28;20462;-68
2023/09/04 00:03:49;;;;;;;2.07;2.07;;;;;;;;;;5032516;28;20442;-69
2023/09/04 00:06:15;;;;;;;3.27;3.20;;;;;;;;;;5033084;28;20440;-68
2023/09/04 00:08:41;;;;;;;3.80;3.60;;;;;;;;;;5033975;28;20482;-69
2023/09/04 00:11:07;;;;;;;3.40;3.30;;;;;;;;;;5045697;28;20427;-68
2023/09/04 00:13:33;;;;;;;3.10;3.00;;;;;;;;;;5032948;28;22096;-69
2023/09/04 00:15:59;;;;;;;3.50;3.40;;;;;;;;;;5031584;28;20435;-68
2023/09/04 00:18:25;;;;;;;3.80;3.70;;;;;;;;;;5047297;28;20442;-70
2023/09/04 00:20:54;;;;;;;1.67;1.67;;;;;;;;;;5032416;28;20469;-69
2023/09/04 00:23:20;;;;;;;1.50;1.50;;;;;;;;;;5032846;28;20792;-68
2023/09/04 00:25:46;;;;;;;3.00;2.90;;;;;;;;;;5029185;28;21492;-70
2023/09/04 00:28:13;;;;;;;3.73;3.43;;;;;;;;;;5031810;28;20535;-70
2023/09/04 00:30:39;;;;;;;3.50;3.20;;;;;;;;;;5032102;28;20939;-68
2023/09/04 00:33:05;;;;;;;4.53;4.13;;;;;;;;;;5031068;28;20466;-69
2023/09/04 00:35:31;;;;;;;4.53;4.27;;;;;;;;;;5031069;28;20784;-68
2023/09/04 00:37:57;;;;;;;3.77;3.67;;;;;;;;;;5029758;28;20781;-69
2023/09/04 00:40:23;;;;;;;5.10;3.20;;;;;;;;;;5030518;28;20430;-68
2023/09/04 00:42:49;;;;;;;4.60;4.27;;;;;;;;;;5030368;28;20439;-69
2023/09/04 00:45:15;;;;;;;4.57;4.23;;;;;;;;;;5031169;28;20521;-69
2023/09/04 00:47:41;;;;;;;3.93;3.70;;;;;;;;;;5031906;28;21005;-69
2023/09/04 00:50:08;;;;;;;2.47;2.30;;;;;;;;;;5029700;28;20443;-69
2023/09/04 00:52:35;;;;;;;5.23;4.93;;;;;;;;;;5029532;28;20523;-69
2023/09/04 00:55:03;;;;;;;3.50;3.40;;;;;;;;;;5030417;28;20474;-68
2023/09/04 00:57:29;;;;;;;2.17;2.17;;;;;;;;;;5030166;28;20439;-69
2023/09/04 00:59:55;;;;;;;4.13;3.53;;;;;;;;;;5030466;28;20477;-68
2023/09/04 01:02:21;;;;;;;4.57;4.37;;;;;;;;;;5031367;28;20518;-69
2023/09/04 01:04:47;;;;;;;3.83;3.73;;;;;;;;;;5030672;28;20435;-68
2023/09/04 01:07:13;;;;;;;4.10;3.80;;;;;;;;;;5030563;28;21073;-68
2023/09/04 01:09:39;;;;;;;4.03;3.83;;;;;;;;;;5029522;28;21136;-68
2023/09/04 01:12:08;;;;;;;4.30;3.90;;;;;;;;;;5032582;28;20450;-68
2023/09/04 01:14:35;;;;;;;2.27;2.07;;;;;;;;;;5031116;28;20429;-68
2023/09/04 01:17:01;;;;;;;4.00;3.90;;;;;;;;;;5035736;28;20439;-68
2023/09/04 01:19:27;;;;;;;1.70;1.70;;;;;;;;;;5027924;28;20516;-69
2023/09/04 01:21:53;;;;;;;2.93;2.83;;;;;;;;;;5031123;28;21739;-69
2023/09/04 01:24:19;;;;;;;4.87;4.67;;;;;;;;;;5032880;28;20441;-68
2023/09/04 01:26:54;;;;;;;5.00;4.80;;;;;;;;;;5028118;28;21180;-68
2023/09/04 01:29:32;;;;;;;6.20;5.13;;;;;;;;;;5029059;28;20533;-71
2023/09/04 01:32:07;;;;;;;4.37;4.13;;;;;;;;;;5026630;28;20446;-72
2023/09/04 01:34:36;;;;;;;3.50;3.40;;;;;;;;;;5028792;28;20567;-68
2023/09/04 01:37:02;;;;;;;2.70;2.70;;;;;;;;;;5028079;28;20439;-68
2023/09/04 01:39:29;;;;;;;4.80;4.40;;;;;;;;;;5029940;28;20460;-72
2023/09/04 01:41:55;;;;;;;4.30;4.20;;;;;;;;;;5029198;28;20452;-68
2023/09/04 01:44:21;;;;;;;4.70;4.50;;;;;;;;;;5028102;28;20438;-69
2023/09/04 01:46:47;;;;;;;3.60;3.50;;;;;;;;;;5029763;28;20474;-70
2023/09/04 01:49:13;;;;;;;4.70;4.60;;;;;;;;;;5028528;28;20458;-67
2023/09/04 01:51:39;;;;;;;5.00;4.80;;;;;;;;;;5029918;28;20462;-67
2023/09/04 01:54:05;;;;;;;4.60;4.47;;;;;;;;;;5024823;28;20482;-70
2023/09/04 01:56:32;;;;;;;4.03;3.90;;;;;;;;;;5030073;28;20475;-69
2023/09/04 01:58:58;;;;;;;4.30;3.90;;;;;;;;;;5030116;28;20445;-69
2023/09/04 02:01:24;;;;;;;4.30;4.20;;;;;;;;;;5030059;28;20431;-68
2023/09/04 02:03:56;;;;;;;8.50;4.17;;;;;;;;;;5030204;28;20442;-69
2023/09/04 02:06:30;;;;;;;4.70;4.40;;;;;;;;;;5028872;28;20497;-70
2023/09/04 02:08:56;;;;;;;4.47;4.00;;;;;;;;;;5028706;28;20454;-68
2023/09/04 02:11:23;;;;;;;4.40;4.20;;;;;;;;;;5030108;28;20446;-69
2023/09/04 02:13:49;;;;;;;4.87;4.60;;;;;;;;;;5029454;28;20427;-71
2023/09/04 02:16:15;;;;;;;4.80;4.60;;;;;;;;;;5028736;28;20442;-71
2023/09/04 02:18:41;;;;;;;5.33;5.13;;;;;;;;;;5028662;28;20439;-69
2023/09/04 02:21:07;;;;;;;5.47;5.10;;;;;;;;;;5031977;28;20434;-68
2023/09/04 02:23:33;;;;;;;4.43;4.03;;;;;;;;;;5036359;28;20951;-68
2023/09/04 02:25:59;;;;;;;5.30;4.90;;;;;;;;;;5033494;28;20447;-68
2023/09/04 02:28:25;;;;;;;5.00;4.70;;;;;;;;;;5034184;28;20975;-68
2023/09/04 02:30:52;;;;;;;4.33;3.90;;;;;;;;;;5029774;28;20883;-70
2023/09/04 02:33:18;;;;;;;2.57;2.47;;;;;;;;;;5031961;28;20870;-69
2023/09/04 02:35:44;;;;;;;6.53;4.17;;;;;;;;;;5032701;28;20481;-68
2023/09/04 02:38:09;;;;;;;5.63;4.97;;;;;;;;;;5032912;28;20813;-68
2023/09/04 02:40:35;;;;;;;2.77;2.77;;;;;;;;;;5034573;28;20423;-68
2023/09/04 02:43:01;;;;;;;4.10;3.90;;;;;;;;;;5032749;28;20951;-69
2023/09/04 02:45:27;;;;;;;6.50;4.83;;;;;;;;;;5031845;28;20442;-69
2023/09/04 02:47:53;;;;;;;5.23;4.83;;;;;;;;;;5032903;28;20492;-69
2023/09/04 02:50:19;;;;;;;5.43;4.67;;;;;;;;;;5033745;28;20468;-68
2023/09/04 02:52:45;;;;;;;4.70;4.50;;;;;;;;;;5031572;28;20472;-69
2023/09/04 02:55:12;;;;;;;4.67;4.33;;;;;;;;;;5030627;28;20475;-68
2023/09/04 02:57:38;;;;;;;3.43;3.23;;;;;;;;;;5032557;28;20459;-68
2023/09/04 03:00:06;;;;;;;10.67;5.90;;;;;;;;;;5034355;28;20483;-68
2023/09/04 03:02:33;;;;;;;5.60;5.33;;;;;;;;;;5032326;28;20457;-68
2023/09/04 03:04:59;;;;;;;6.00;5.60;;;;;;;;;;5031404;28;20516;-73
2023/09/04 03:07:28;;;;;;;4.77;4.57;;;;;;;;;;5032981;28;20971;-72
2023/09/04 03:10:01;;;;;;;5.10;4.07;;;;;;;;;;5033013;28;20445;-70
2023/09/04 03:12:28;;;;;;;6.90;3.70;;;;;;;;;;5033225;28;20501;-69
2023/09/04 03:14:55;;;;;;;5.30;3.27;;;;;;;;;;5031028;28;20439;-68
2023/09/04 03:17:21;;;;;;;4.63;4.10;;;;;;;;;;5032194;28;20934;-72
2023/09/04 03:19:47;;;;;;;4.40;4.13;;;;;;;;;;5032821;28;20939;-72
2023/09/04 03:22:13;;;;;;;4.13;3.47;;;;;;;;;;5032860;28;20547;-71
2023/09/04 03:24:39;;;;;;;4.20;3.97;;;;;;;;;;5032578;28;20961;-72
2023/09/04 03:27:05;;;;;;;3.13;3.03;;;;;;;;;;5032350;28;21033;-68
2023/09/04 03:29:31;;;;;;;3.20;3.10;;;;;;;;;;5032809;28;20442;-68
2023/09/04 03:31:57;;;;;;;3.90;3.73;;;;;;;;;;5029112;28;20461;-71
2023/09/04 03:34:23;;;;;;;2.90;2.90;;;;;;;;;;5031678;28;20470;-69
2023/09/04 03:36:49;;;;;;;6.00;3.70;;;;;;;;;;5031824;28;20522;-68
2023/09/04 03:39:15;;;;;;;15.27;3.53;;;;;;;;;;5032004;28;20446;-70
2023/09/04 03:41:41;;;;;;;2.93;2.90;;;;;;;;;;5031016;28;20946;-68
2023/09/04 03:44:07;;;;;;;2.50;2.40;;;;;;;;;;5033334;28;20446;-71
2023/09/04 03:46:33;;;;;;;4.47;3.57;;;;;;;;;;5031408;28;20439;-71
2023/09/04 03:48:59;;;;;;;3.53;2.70;;;;;;;;;;5032748;28;20446;-69
2023/09/04 03:51:25;;;;;;;8.00;2.97;;;;;;;;;;5031835;28;20427;-70
2023/09/04 03:53:51;;;;;;;2.77;2.77;;;;;;;;;;5029122;28;20482;-69
2023/09/04 03:56:17;;;;;;;2.83;2.47;;;;;;;;;;5030016;28;20920;-70
2023/09/04 03:58:43;;;;;;;4.50;2.87;;;;;;;;;;5031433;28;20907;-72
2023/09/04 04:01:09;;;;;;;2.80;2.70;;;;;;;;;;5031706;28;20430;-70
2023/09/04 04:03:35;;;;;;;3.00;2.83;;;;;;;;;;5033414;28;20591;-72
2023/09/04 04:06:08;;;;;;;7.60;2.83;;;;;;;;;;5033019;28;20503;-72
2023/09/04 04:08:34;;;;;;;2.37;2.37;;;;;;;;;;5031248;28;20483;-69
2023/09/04 04:11:00;;;;;;;4.10;3.87;;;;;;;;;;5031833;28;20501;-68
2023/09/04 04:13:26;;;;;;;4.20;2.80;;;;;;;;;;5030755;28;20538;-68
2023/09/04 04:15:52;;;;;;;3.30;3.20;;;;;;;;;;5029259;28;20449;-68
2023/09/04 04:18:18;;;;;;;2.97;2.80;;;;;;;;;;5030758;28;20516;-68
2023/09/04 04:20:44;;;;;;;3.07;2.97;;;;;;;;;;5031723;28;20441;-69
2023/09/04 04:23:10;;;;;;;3.53;3.40;;;;;;;;;;5029538;28;20578;-70
2023/09/04 04:25:36;;;;;;;3.03;2.93;;;;;;;;;;5029264;28;20549;-69
2023/09/04 04:28:02;;;;;;;3.20;3.17;;;;;;;;;;5031775;28;20224;-70
2023/09/04 04:30:28;;;;;;;4.20;4.00;;;;;;;;;;5032448;28;20437;-70
2023/09/04 04:32:54;;;;;;;4.07;3.97;;;;;;;;;;5029884;28;20929;-71
2023/09/04 04:35:20;;;;;;;4.33;4.20;;;;;;;;;;5029525;28;20439;-72
2023/09/04 04:37:46;;;;;;;5.03;3.90;;;;;;;;;;5030170;28;20935;-70
2023/09/04 04:40:12;;;;;;;4.43;4.20;;;;;;;;;;5030604;28;20924;-70
2023/09/04 04:42:38;;;;;;;8.00;4.20;;;;;;;;;;5029852;28;20439;-69
2023/09/04 04:45:04;;;;;;;4.53;4.33;;;;;;;;;;5028680;28;20439;-71
2023/09/04 04:47:30;;;;;;;6.00;3.90;;;;;;;;;;5031181;28;20486;-70
2023/09/04 04:49:56;;;;;;;4.23;4.03;;;;;;;;;;5029570;28;20439;-70
2023/09/04 04:52:22;;;;;;;4.23;4.03;;;;;;;;;;5030541;28;20443;-68
2023/09/04 04:54:48;;;;;;;8.93;5.47;;;;;;;;;;5029531;28;20470;-70
2023/09/04 04:57:16;;;;;;;4.90;4.60;;;;;;;;;;5028605;28;20528;-69
2023/09/04 04:59:41;;;;;;;4.70;4.50;;;;;;;;;;5030138;28;20443;-68
2023/09/04 05:02:09;;;;;;;4.83;4.63;;;;;;;;;;5028364;28;20493;-69
2023/09/04 05:04:35;;;;;;;6.10;5.57;;;;;;;;;;5028942;28;20815;-69
2023/09/04 05:07:02;;;;;;;7.50;5.33;;;;;;;;;;5031605;28;21063;-68
2023/09/04 05:09:28;;;;;;;5.30;5.10;;;;;;;;;;5030680;28;20469;-69
2023/09/04 05:11:54;;;;;;;6.90;6.27;;;;;;;;;;5028717;28;20443;-69
2023/09/04 05:14:20;;;;;;;6.43;6.03;;;;;;;;;;5026448;28;20532;-70
2023/09/04 05:16:45;;;;;;;7.07;6.47;;;;;;;;;;5027749;28;20525;-68
2023/09/04 05:19:12;;;;;;;7.57;7.07;;;;;;;;;;5029403;28;20451;-68
2023/09/04 05:21:38;;;;;;;7.37;6.63;;;;;;;;;;5030601;28;20797;-71
2023/09/04 05:24:04;;;;;;;12.47;7.77;;;;;;;;;;5030644;28;20942;-70
2023/09/04 05:26:30;;;;;;;14.10;8.23;;;;;;;;;;5031816;28;20454;-68
2023/09/04 05:28:56;;;;;;;9.77;8.53;;;;;;;;;;5029358;28;20501;-70
2023/09/04 05:31:22;;;;;;;9.80;8.10;;;;;;;;;;5030775;28;20431;-68
2023/09/04 05:33:48;;;;;;;8.83;8.00;;;;;;;;;;5028496;28;20451;-68
2023/09/04 05:36:14;;;;;;;9.40;8.67;;;;;;;;;;5027118;28;20482;-69
2023/09/04 05:38:40;;;;;;;14.40;9.77;;;;;;;;;;5029484;28;20471;-69
2023/09/04 05:41:06;;;;;;;9.40;8.37;;;;;;;;;;5029966;28;20446;-68
2023/09/04 05:43:32;;;;;;;11.00;9.90;;;;;;;;;;5028070;28;20623;-69
2023/09/04 05:45:58;;;;;;;10.77;9.77;;;;;;;;;;5030308;28;20486;-68
2023/09/04 05:48:24;;;;;;;12.00;10.70;;;;;;;;;;5028506;28;20457;-68
2023/09/04 05:50:50;;;;;;;11.70;9.73;;;;;;;;;;5030659;28;20207;-68
2023/09/04 05:53:16;;;;;;;10.07;9.17;;;;;;;;;;5029288;28;20457;-68
2023/09/04 05:55:42;;;;;;;11.40;10.27;;;;;;;;;;5030410;28;20958;-69
2023/09/04 05:58:11;;;;;;;14.53;10.60;;;;;;;;;;5032296;28;20955;-70
2023/09/04 06:00:37;;;;;;;16.03;10.10;;;;;;;;;;5033590;28;20993;-72
2023/09/04 06:03:03;;;;;;;13.63;7.70;;;;;;;;;;5048294;28;20445;-71
2023/09/04 06:05:29;;;;;;;12.10;10.90;;;;;;;;;;5029775;28;20429;-70
2023/09/04 06:07:56;;;;;;;10.53;9.60;;;;;;;;;;5033660;28;20574;-70
2023/09/04 06:10:22;;;;;;;11.47;10.30;;;;;;;;;;5032585;28;20438;-68
2023/09/04 06:12:48;;;;;;;11.10;10.10;;;;;;;;;;5034309;28;20453;-68
2023/09/04 06:15:14;;;;;;;10.63;9.57;;;;;;;;;;5032815;28;20531;-69
2023/09/04 06:17:40;;;;;;;12.07;10.83;;;;;;;;;;5032712;28;20785;-69
2023/09/04 06:20:06;;;;;;;21.77;9.80;;;;;;;;;;5034692;28;20445;-68
2023/09/04 06:22:32;;;;;;;11.33;10.23;;;;;;;;;;5031854;28;20461;-69
2023/09/04 06:24:58;;;;;;;11.47;9.77;;;;;;;;;;5031102;28;20439;-69
2023/09/04 06:27:24;;;;;;;11.77;10.60;;;;;;;;;;5034001;28;20852;-69
2023/09/04 06:29:50;;;;;;;12.63;11.43;;;;;;;;;;5033959;28;20481;-69
2023/09/04 06:32:16;;;;;;;13.60;12.20;;;;;;;;;;5035305;28;20489;-69
2023/09/04 06:34:42;;;;;;;12.00;10.87;;;;;;;;;;5031077;28;20435;-69
2023/09/04 06:37:08;;;;;;;22.33;11.27;;;;;;;;;;5031185;28;20948;-69
2023/09/04 06:39:34;;;;;;;11.90;10.70;;;;;;;;;;5032941;28;20805;-69
2023/09/04 06:42:00;;;;;;;15.70;11.80;;;;;;;;;;5032623;28;20446;-71
2023/09/04 06:44:26;;;;;;;14.77;11.70;;;;;;;;;;5032842;28;20449;-69
2023/09/04 06:46:52;;;;;;;9.73;8.80;;;;;;;;;;5032321;28;20437;-68
2023/09/04 06:49:17;;;;;;;14.97;9.70;;;;;;;;;;5033435;28;20724;-69
2023/09/04 06:51:43;;;;;;;13.07;11.07;;;;;;;;;;5032985;28;20468;-70
2023/09/04 06:54:11;;;;;;;10.93;9.93;;;;;;;;;;5031599;28;21017;-72
2023/09/04 06:56:37;;;;;;;15.03;12.70;;;;;;;;;;5031585;28;20477;-68
2023/09/04 06:59:04;;;;;;;12.23;9.83;;;;;;;;;;5032038;28;20485;-69
2023/09/04 07:01:30;;;;;;;11.33;10.23;;;;;;;;;;5032215;28;20453;-69
2023/09/04 07:03:56;;;;;;;17.00;9.40;;;;;;;;;;5032642;28;20447;-68
2023/09/04 07:06:22;;;;;;;19.83;10.97;;;;;;;;;;5030234;28;20450;-69
2023/09/04 07:08:50;;;;;;;17.17;10.27;;;;;;;;;;5033836;28;20491;-69
2023/09/04 07:11:16;;;;;;;11.90;10.70;;;;;;;;;;5032577;28;20538;-69
2023/09/04 07:13:42;;;;;;;12.23;11.10;;;;;;;;;;5031165;28;21002;-69
2023/09/04 07:16:08;;;;;;;12.37;11.17;;;;;;;;;;5031244;28;20439;-69
2023/09/04 07:18:34;;;;;;;12.53;11.00;;;;;;;;;;5031235;28;20530;-70
2023/09/04 07:21:00;;;;;;;11.47;10.00;;;;;;;;;;5031774;28;22280;-69
2023/09/04 07:23:27;;;;;;;12.87;11.50;;;;;;;;;;5031342;28;20909;-71
2023/09/04 07:25:54;;;;;;;11.27;10.17;;;;;;;;;;5031497;28;20513;-69
2023/09/04 07:28:20;;;;;;;13.00;10.17;;;;;;;;;;5030873;28;20487;-68
2023/09/04 07:30:46;;;;;;;12.00;10.70;;;;;;;;;;5030905;28;20446;-68
2023/09/04 07:33:12;;;;;;;11.30;10.40;;;;;;;;;;5030856;28;20470;-70
2023/09/04 07:35:40;;;;;;;10.80;9.90;;;;;;;;;;5032130;28;20427;-68
2023/09/04 07:38:06;;;;;;;10.50;8.97;;;;;;;;;;5031175;28;20920;-69
2023/09/04 07:40:34;;;;;;;5.93;5.57;;;;;;;;;;5033017;28;20468;-69
2023/09/04 07:43:00;;;;;;;11.27;10.07;;;;;;;;;;5029966;28;20936;-68
2023/09/04 07:45:26;;;;;;;16.73;10.70;;;;;;;;;;5030550;28;20435;-69
2023/09/04 07:47:52;;;;;;;11.47;10.30;;;;;;;;;;5031392;28;20567;-68
2023/09/04 07:50:18;;;;;;;11.63;10.43;;;;;;;;;;5031173;28;20534;-69
2023/09/04 07:52:45;;;;;;;14.80;10.40;;;;;;;;;;5029087;28;20482;-68
2023/09/04 07:55:11;;;;;;;11.43;10.33;;;;;;;;;;5029208;28;20470;-68
2023/09/04 07:57:39;;;;;;;8.80;8.20;;;;;;;;;;5031927;28;20806;-68
2023/09/04 08:00:05;;;;;;;13.00;10.57;;;;;;;;;;5028526;28;20427;-70
2023/09/04 08:02:31;;;;;;;11.10;10.00;;;;;;;;;;5031291;28;20442;-68
2023/09/04 08:04:57;;;;;;;11.00;10.00;;;;;;;;;;5032003;28;20786;-69
2023/09/04 08:07:23;;;;;;;11.17;10.10;;;;;;;;;;5032925;28;21040;-68
2023/09/04 08:09:49;;;;;;;8.23;7.60;;;;;;;;;;5032886;28;20451;-68
2023/09/04 08:12:15;;;;;;;9.50;8.80;;;;;;;;;;5030782;28;20453;-68
2023/09/04 08:14:43;;;;;;;10.70;9.60;;;;;;;;;;5030203;28;20447;-68
2023/09/04 08:17:09;;;;;;;9.30;8.50;;;;;;;;;;5028743;28;20466;-68
2023/09/04 08:19:35;;;;;;;13.80;10.13;;;;;;;;;;5028317;28;20498;-71
2023/09/04 08:22:01;;;;;;;9.43;8.63;;;;;;;;;;5030649;28;20450;-69
2023/09/04 08:24:27;;;;;;;8.37;7.70;;;;;;;;;;5029714;28;20443;-68
2023/09/04 08:26:53;;;;;;;8.67;7.97;;;;;;;;;;5029061;28;20526;-73
2023/09/04 08:29:19;;;;;;;7.73;7.23;;;;;;;;;;5030107;28;20446;-69
2023/09/04 08:31:45;;;;;;;9.60;8.80;;;;;;;;;;5028854;28;21104;-68
2023/09/04 08:34:11;;;;;;;8.80;8.10;;;;;;;;;;5029145;28;20450;-68
2023/09/04 08:36:37;;;;;;;9.50;8.67;;;;;;;;;;5029421;28;20499;-69
2023/09/04 08:39:03;;;;;;;8.40;7.70;;;;;;;;;;5029915;28;20458;-68
2023/09/04 08:41:29;;;;;;;8.23;7.53;;;;;;;;;;5029756;28;20451;-68
2023/09/04 08:43:57;;;;;;;10.70;6.40;;;;;;;;;;5032406;28;20451;-68
2023/09/04 08:46:23;;;;;;;6.60;6.00;;;;;;;;;;5030445;28;20438;-68
2023/09/04 08:48:49;;;;;;;5.67;5.37;;;;;;;;;;5030863;28;20500;-69
2023/09/04 08:51:16;;;;;;;6.37;6.00;;;;;;;;;;5026714;28;20447;-68
2023/09/04 08:53:42;;;;;;;6.60;6.13;;;;;;;;;;5030545;28;20998;-68
2023/09/04 08:56:08;;;;;;;5.80;5.50;;;;;;;;;;5026481;28;20462;-68
2023/09/04 08:58:34;;;;;;;5.73;5.50;;;;;;;;;;5029634;28;21276;-68
2023/09/04 09:01:03;;;;;;;5.23;4.97;;;;;;;;;;5028504;28;20451;-67
2023/09/04 09:03:29;;;;;;;6.23;5.87;;;;;;;;;;5030734;28;20450;-68
2023/09/04 09:05:56;;;;;;;5.57;5.17;;;;;;;;;;5027453;28;20446;-70
2023/09/04 09:08:23;;;;;;;5.47;4.60;;;;;;;;;;5026132;28;20486;-68
2023/09/04 09:10:49;;;;;;;6.20;5.90;;;;;;;;;;5029012;28;21079;-68
2023/09/04 09:13:15;;;;;;;5.70;5.07;;;;;;;;;;5028098;28;20434;-69
2023/09/04 09:15:42;;;;;;;6.03;5.30;;;;;;;;;;5029513;28;20461;-69
2023/09/04 09:18:09;;;;;;;4.27;4.07;;;;;;;;;;5028364;28;20431;-69
2023/09/04 09:20:36;;;;;;;3.90;3.70;;;;;;;;;;5017551;28;20512;-68
2023/09/04 09:23:04;;;;;;;4.80;4.60;;;;;;;;;;5034681;28;20446;-68
2023/09/04 09:25:30;;;;;;;4.17;4.00;;;;;;;;;;5029774;28;20915;-68
2023/09/04 09:28:04;;;;;;;4.27;4.07;;;;;;;;;;5027534;28;20483;-68
2023/09/04 09:30:38;;;;;;;5.23;5.00;;;;;;;;;;5028617;28;20457;-68
2023/09/04 09:33:05;;;;;;;4.47;4.23;;;;;;;;;;5027709;28;20437;-68
2023/09/04 09:35:33;;;;;;;4.37;4.27;;;;;;;;;;5025604;28;20450;-68
2023/09/04 09:38:00;;;;;;;3.27;3.13;;;;;;;;;;5026642;28;20496;-68
2023/09/04 09:40:26;;;;;;;3.90;3.70;;;;;;;;;;5027399;28;20558;-68
2023/09/04 09:42:53;;;;;;;4.10;3.80;;;;;;;;;;5027317;28;20517;-68
2023/09/04 09:45:19;;;;;;;4.33;4.20;;;;;;;;;;5026231;28;20458;-68
2023/09/04 09:47:45;;;;;;;4.07;3.80;;;;;;;;;;5027545;28;20485;-68
2023/09/04 09:50:11;;;;;;;3.53;3.40;;;;;;;;;;5026374;28;20801;-68
2023/09/04 09:52:37;;;;;;;3.73;3.60;;;;;;;;;;5027359;28;20476;-68
2023/09/04 09:55:04;;;;;;;3.43;3.37;;;;;;;;;;5026818;28;20508;-68
2023/09/04 09:57:30;;;;;;;3.43;3.30;;;;;;;;;;5028096;28;20439;-68
2023/09/04 09:59:56;;;;;;;3.67;3.47;;;;;;;;;;5028162;28;21731;-68
2023/09/04 10:02:23;;;;;;;3.50;3.40;;;;;;;;;;5026495;28;20447;-69
2023/09/04 10:04:50;;;;;;;3.87;3.57;;;;;;;;;;5026677;28;20450;-68
2023/09/04 10:07:21;;;;;;;3.20;3.10;;;;;;;;;;5025156;28;20891;-68
2023/09/04 10:09:49;;;;;;;3.60;3.40;;;;;;;;;;5028378;28;20512;-68
2023/09/04 10:12:31;;;;;;;3.10;3.10;;;;;;;;;;5028002;28;20441;-68
2023/09/04 10:14:58;;;;;;;4.30;3.20;;;;;;;;;;5026121;28;20501;-69
2023/09/04 10:17:32;;;;;;;3.40;3.30;;;;;;;;;;5026740;28;20798;-68
2023/09/04 10:20:01;;;;;;;3.27;3.20;;;;;;;;;;5025550;28;20431;-69
2023/09/04 10:22:30;;;;;;;4.40;4.10;;;;;;;;;;5026796;28;20907;-68
2023/09/04 10:25:04;;;;;;;3.23;3.10;;;;;;;;;;5027569;28;20439;-68
2023/09/04 10:27:32;;;;;;;7.00;3.17;;;;;;;;;;5027104;28;20474;-69
2023/09/04 10:30:03;;;;;;;5.53;5.23;;;;;;;;;;5028199;28;20947;-68
2023/09/04 10:32:30;;;;;;;5.47;5.03;;;;;;;;;;5027203;28;20438;-68
2023/09/04 10:34:56;;;;;;;3.10;3.00;;;;;;;;;;5026767;28;20451;-68
2023/09/04 10:37:24;;;;;;;3.53;3.23;;;;;;;;;;5026350;28;20437;-68
2023/09/04 10:39:50;;;;;;;4.43;3.17;;;;;;;;;;5026123;28;20919;-68
2023/09/04 10:42:16;;;;;;;4.33;3.40;;;;;;;;;;5027511;28;20442;-68
2023/09/04 10:44:49;;;;;;;6.20;2.70;;;;;;;;;;5028548;28;20457;-68
2023/09/04 10:47:16;;;;;;;2.90;2.80;;;;;;;;;;5026698;28;20936;-68
2023/09/04 10:49:43;;;;;;;2.67;2.67;;;;;;;;;;5027804;28;20442;-68
2023/09/04 10:52:09;;;;;;;1.90;1.90;;;;;;;;;;5044092;28;20447;-68
2023/09/04 10:54:35;;;;;;;2.37;2.37;;;;;;;;;;5030106;28;20474;-68
2023/09/04 10:57:05;;;;;;;2.40;2.30;;;;;;;;;;5029528;28;20961;-68
2023/09/04 10:59:31;;;;;;;2.00;2.00;;;;;;;;;;5026486;28;20490;-68
2023/09/04 11:01:58;;;;;;;6.87;1.83;;;;;;;;;;5027874;28;20550;-68
2023/09/04 11:04:36;;;;;;;2.57;2.57;;;;;;;;;;5027949;28;20447;-68
2023/09/04 11:07:18;;;;;;;1.97;1.97;;;;;;;;;;5031871;28;20820;-68
2023/09/04 11:09:44;;;;;;;2.37;2.33;;;;;;;;;;5036036;28;20443;-68
2023/09/04 11:12:11;;;;;;;1.93;1.83;;;;;;;;;;5029918;28;21369;-68
2023/09/04 11:14:44;;;;;;;3.10;2.80;;;;;;;;;;5033936;28;20454;-68
2023/09/04 11:17:10;;;;;;;4.70;2.10;;;;;;;;;;5044625;28;20930;-68
2023/09/04 11:19:36;;;;;;;2.57;2.57;;;;;;;;;;5039796;28;20439;-68
2023/09/04 11:22:02;;;;;;;4.10;2.40;;;;;;;;;;5037703;28;20446;-68
2023/09/04 11:24:30;;;;;;;2.93;2.83;;;;;;;;;;5026863;28;20450;-68
2023/09/04 11:26:56;;;;;;;3.17;2.10;;;;;;;;;;5040422;28;20446;-68
2023/09/04 11:29:22;;;;;;;2.30;2.30;;;;;;;;;;5044309;28;20454;-68
2023/09/04 11:31:48;;;;;;;6.87;1.93;;;;;;;;;;5042947;28;21037;-68
2023/09/04 11:34:21;;;;;;;2.50;2.50;;;;;;;;;;5042332;28;20470;-68
2023/09/04 11:36:47;;;;;;;3.60;3.40;;;;;;;;;;5048265;28;20480;-67
2023/09/04 11:39:13;;;;;;;2.07;2.07;;;;;;;;;;5044379;28;20455;-67
2023/09/04 11:41:39;;;;;;;2.20;2.20;;;;;;;;;;5047388;28;20481;-68
2023/09/04 11:44:06;;;;;;;2.93;2.10;;;;;;;;;;5042628;28;20468;-68
2023/09/04 11:46:33;;;;;;;4.50;2.30;;;;;;;;;;5041651;28;20562;-68
2023/09/04 11:48:59;;;;;;;1.93;1.70;;;;;;;;;;5048146;28;21004;-68
2023/09/04 11:51:25;;;;;;;2.53;2.37;;;;;;;;;;5045615;28;20426;-68
2023/09/04 11:53:51;;;;;;;2.10;2.00;;;;;;;;;;5047914;28;20983;-69
2023/09/04 11:56:17;;;;;;;8.23;2.80;;;;;;;;;;5047514;28;20591;-68
2023/09/04 11:58:43;;;;;;;3.13;2.90;;;;;;;;;;5049270;28;20949;-68
2023/09/04 12:01:09;;;;;;;3.90;2.10;;;;;;;;;;5045332;28;20443;-68
2023/09/04 12:03:35;;;;;;;4.07;2.70;;;;;;;;;;5049699;28;20423;-68
2023/09/04 12:06:01;;;;;;;5.63;2.90;;;;;;;;;;5043989;28;21022;-68
2023/09/04 12:08:27;;;;;;;3.07;2.87;;;;;;;;;;5038125;28;20486;-68
2023/09/04 12:10:53;;;;;;;3.10;2.90;;;;;;;;;;5036455;28;20958;-68
2023/09/04 12:13:19;;;;;;;2.00;2.00;;;;;;;;;;5044435;28;20950;-68
2023/09/04 12:15:46;;;;;;;2.40;2.40;;;;;;;;;;5041013;28;20507;-68
2023/09/04 12:18:12;;;;;;;2.50;2.50;;;;;;;;;;5042224;28;20778;-68
2023/09/04 12:20:44;;;;;;;2.33;2.27;;;;;;;;;;5047118;28;20492;-68
2023/09/04 12:23:10;;;;;;;3.70;3.53;;;;;;;;;;5043674;28;20442;-68
2023/09/04 12:25:44;;;;;;;2.63;2.43;;;;;;;;;;5049266;28;20801;-68
2023/09/04 12:28:11;;;;;;;2.93;2.80;;;;;;;;;;5046775;28;20482;-68
2023/09/04 12:30:44;;;;;;;2.57;2.43;;;;;;;;;;5046848;28;20427;-68
2023/09/04 12:33:10;;;;;;;2.90;2.70;;;;;;;;;;5046351;28;20441;-68
2023/09/04 12:35:36;;;;;;;3.77;2.67;;;;;;;;;;5046201;28;20441;-68
2023/09/04 12:38:03;;;;;;;2.90;2.80;;;;;;;;;;5048893;28;20451;-68
2023/09/04 12:40:29;;;;;;;2.60;2.50;;;;;;;;;;5050557;28;21060;-68
2023/09/04 12:42:55;;;;;;;2.97;2.70;;;;;;;;;;5045910;28;20514;-68
2023/09/04 12:45:21;;;;;;;2.27;2.17;;;;;;;;;;5047177;28;20839;-68
2023/09/04 12:47:47;;;;;;;3.07;2.97;;;;;;;;;;5050364;28;20478;-68
2023/09/04 12:50:13;;;;;;;5.27;3.13;;;;;;;;;;5044429;28;20464;-68
2023/09/04 12:52:44;;;;;;;3.10;2.40;;;;;;;;;;5046089;28;20438;-68
2023/09/04 12:55:10;;;;;;;2.60;2.43;;;;;;;;;;5046500;28;20479;-68
2023/09/04 12:57:36;;;;;;;2.43;2.43;;;;;;;;;;5047629;28;20851;-68
2023/09/04 13:00:03;;;;;;;3.03;2.47;;;;;;;;;;5045759;28;20938;-68
2023/09/04 13:02:29;;;;;;;2.50;2.40;;;;;;;;;;5049976;28;20426;-68
2023/09/04 13:04:55;;;;;;;2.90;2.77;;;;;;;;;;5043146;28;20487;-68
2023/09/04 13:07:20;;;;;;;2.20;2.20;;;;;;;;;;5047604;28;20548;-68
2023/09/04 13:09:47;;;;;;;2.50;2.50;;;;;;;;;;5047195;28;21915;-68
2023/09/04 13:12:13;;;;;;;2.40;2.30;;;;;;;;;;5042775;28;20443;-68
2023/09/04 13:14:39;;;;;;;2.20;2.10;;;;;;;;;;5045450;28;20929;-68
2023/09/04 13:17:05;;;;;;;2.00;1.90;;;;;;;;;;5043203;28;20444;-68
2023/09/04 13:19:31;;;;;;;2.77;2.50;;;;;;;;;;5043202;28;21042;-68
2023/09/04 13:21:57;;;;;;;6.93;2.67;;;;;;;;;;5045616;28;20429;-69
2023/09/04 13:24:23;;;;;;;2.03;2.00;;;;;;;;;;5043674;28;20430;-71
2023/09/04 13:26:49;;;;;;;2.87;2.87;;;;;;;;;;5045382;28;20427;-68
2023/09/04 13:29:16;;;;;;;3.97;2.60;;;;;;;;;;5042657;28;20487;-68
2023/09/04 13:31:42;;;;;;;3.53;2.63;;;;;;;;;;5044825;28;20442;-68
2023/09/04 13:34:08;;;;;;;2.20;2.20;;;;;;;;;;5047558;28;20480;-68
2023/09/04 13:36:34;;;;;;;2.10;2.10;;;;;;;;;;5048883;28;20429;-68
2023/09/04 13:39:00;;;;;;;2.10;2.10;;;;;;;;;;5042812;28;20446;-68
2023/09/04 13:41:26;;;;;;;2.90;2.80;;;;;;;;;;5045483;28;20437;-68
2023/09/04 13:43:52;;;;;;;2.50;2.40;;;;;;;;;;5046118;28;20453;-68
2023/09/04 13:46:19;;;;;;;6.10;2.23;;;;;;;;;;5041016;28;20466;-68
2023/09/04 13:48:45;;;;;;;2.20;2.10;;;;;;;;;;5045637;28;20506;-68
2023/09/04 13:51:12;;;;;;;2.13;2.03;;;;;;;;;;5047115;28;20437;-68
2023/09/04 13:53:38;;;;;;;2.00;2.00;;;;;;;;;;5044785;28;21009;-68
2023/09/04 13:56:04;;;;;;;2.03;2.03;;;;;;;;;;5047434;28;20469;-68
2023/09/04 13:58:30;;;;;;;2.50;2.20;;;;;;;;;;5046337;28;20834;-68
2023/09/04 14:00:56;;;;;;;2.47;2.37;;;;;;;;;;5045988;28;20451;-68
2023/09/04 14:03:22;;;;;;;1.83;1.83;;;;;;;;;;5044494;28;20438;-68
2023/09/04 14:05:50;;;;;;;2.00;2.00;;;;;;;;;;5037232;28;20447;-68
2023/09/04 14:08:16;;;;;;;2.17;2.03;;;;;;;;;;5030019;28;20521;-68
2023/09/04 14:10:42;;;;;;;3.20;2.67;;;;;;;;;;5031943;28;20848;-68
2023/09/04 14:13:09;;;;;;;2.70;2.60;;;;;;;;;;5028029;28;20458;-70
2023/09/04 14:15:35;;;;;;;2.40;2.40;;;;;;;;;;5029958;28;20425;-68
2023/09/04 14:18:01;;;;;;;2.17;2.17;;;;;;;;;;5032400;28;20875;-68
2023/09/04 14:20:27;;;;;;;1.90;1.80;;;;;;;;;;5035207;28;20435;-68
2023/09/04 14:22:53;;;;;;;2.43;2.33;;;;;;;;;;5033264;28;20808;-68
2023/09/04 14:25:19;;;;;;;2.10;2.00;;;;;;;;;;5035410;28;20433;-68
2023/09/04 14:27:46;;;;;;;1.50;1.50;;;;;;;;;;5033455;28;20574;-68
2023/09/04 14:30:12;;;;;;;2.20;2.10;;;;;;;;;;5033104;28;21014;-69
2023/09/04 14:32:38;;;;;;;2.97;1.90;;;;;;;;;;5032866;28;20431;-68
2023/09/04 14:35:04;;;;;;;2.10;2.10;;;;;;;;;;5033818;28;22100;-68